COK2 weather

Calgary\Okotoks (GG Ranch) Heliport
Calgary, Alberta, Canada

Public forecast

Using degrees Celsius for public forecast. Weather courtesy of forecast.io.

Closest aviation weather report (METAR) to Calgary\Okotoks (GG Ranch) Heliport

Closest report is Calgary International Airport, 22.2 nm (41.1 km) N. Retrieved 2020/06/01 17:00 UTC (26 minutes ago):

CYYC 011700Z 17006KT 070V200 40SM FEW085 SCT200 BKN270 15/04 A2993 RMK AC1CI2CI2 SLP143 DENSITY ALT 4500FT

Closest aviation forecast (TAF) to Calgary\Okotoks (GG Ranch) Heliport

Closest forecast is Calgary International Airport, 22.2 nm (41.1 km) N. Retrieved 2020/06/01 15:00 UTC (2 hours ago):

TAF CYYC 011438Z 0115/0212 VRB03KT P6SM FEW120 SCT220 BECMG 0116/0118 23010KT FM012300 29012G22KT P6SM SCT100 TEMPO 0123/0203 P6SM VCTS FEW080CB FM020300 26008KT P6SM FEW100 RMK NXT FCST BY 011800Z